Time;durP1;ratioP1;P1;durP2;ratioP2;P2;SDS_P1;SDS_P2;PMS_P1;PMS_P2;Temp;Humidity;BMP_temperature;BMP_pressure;BME280_temperature;BME280_humidity;BME280_pressure;Samples;Min_cycle;Max_cycle;Signal;HPM_P1;HPM_P2
2024/03/24 00:00:04;;;;;;;14.20;8.80;;;;;;;7.71;88.58;99513.41;5048472;28;20021;-80
2024/03/24 00:02:30;;;;;;;14.63;8.93;;;;;;;7.68;86.32;99507.72;5048103;28;20032;-79
2024/03/24 00:04:55;;;;;;;13.68;8.52;;;;;;;7.13;88.18;99487.78;5046430;28;20401;-79
2024/03/24 00:07:21;;;;;;;15.02;8.23;;;;;;;6.93;88.52;99476.47;5047942;28;20024;-79
2024/03/24 00:09:46;;;;;;;15.38;8.50;;;;;;;7.32;88.14;99517.09;5064013;28;20068;-78
2024/03/24 00:12:11;;;;;;;13.57;8.63;;;;;;;6.79;90.94;99486.28;5061959;28;20145;-79
2024/03/24 00:14:37;;;;;;;15.38;8.15;;;;;;;6.73;91.24;99487.91;5047744;28;20041;-78
2024/03/24 00:17:03;;;;;;;14.27;8.50;;;;;;;6.53;92.08;99498.56;5029480;28;20068;-79
2024/03/24 00:19:28;;;;;;;17.13;9.65;;;;;;;6.61;90.12;99478.97;5047527;28;20040;-79
2024/03/24 00:21:54;;;;;;;14.98;9.27;;;;;;;6.94;89.55;99504.56;5047673;28;20032;-79
2024/03/24 00:24:19;;;;;;;13.38;9.02;;;;;;;6.93;91.31;99502.97;5046005;28;20029;-80
2024/03/24 00:26:45;;;;;;;13.50;8.32;;;;;;;7.18;91.14;99501.22;5064398;28;20409;-79
2024/03/24 00:29:10;;;;;;;13.52;8.43;;;;;;;6.53;94.13;99485.31;5054529;28;20120;-78
2024/03/24 00:31:36;;;;;;;14.80;8.80;;;;;;;6.68;92.40;99476.31;5047736;28;20021;-79
2024/03/24 00:34:01;;;;;;;15.23;8.30;;;;;;;6.54;93.19;99467.56;5046142;28;20037;-80
2024/03/24 00:36:26;;;;;;;15.27;8.95;;;;;;;6.68;91.34;99474.50;5060835;28;20040;-79
2024/03/24 00:38:52;;;;;;;15.27;8.52;;;;;;;6.79;92.42;99491.56;5056945;28;20116;-79
2024/03/24 00:41:17;;;;;;;15.65;8.75;;;;;;;6.63;91.43;99471.63;5047734;28;20032;-79
2024/03/24 00:43:43;;;;;;;16.85;9.32;;;;;;;6.77;89.55;99493.63;5045822;28;20139;-79
2024/03/24 00:46:08;;;;;;;17.50;10.27;;;;;;;6.43;92.07;99474.31;5051563;28;20068;-78
2024/03/24 00:48:33;;;;;;;15.05;9.02;;;;;;;6.52;92.27;99494.28;5046913;28;20141;-79
2024/03/24 00:50:59;;;;;;;14.90;8.52;;;;;;;6.30;92.42;99477.00;5046906;28;20024;-79
2024/03/24 00:53:24;;;;;;;13.68;8.50;;;;;;;6.19;90.20;99471.31;5047434;28;20029;-79
2024/03/24 00:55:50;;;;;;;15.50;8.73;;;;;;;6.08;91.26;99489.63;5047361;28;20501;-79
2024/03/24 00:58:15;;;;;;;15.02;9.90;;;;;;;5.79;94.77;99476.53;5047087;28;20063;-79
2024/03/24 01:00:41;;;;;;;12.82;7.70;;;;;;;4.98;94.40;99434.25;5047675;28;20049;-79
2024/03/24 01:03:07;;;;;;;13.70;8.00;;;;;;;5.22;93.21;99441.63;5046796;28;20044;-79
2024/03/24 01:05:32;;;;;;;14.65;7.90;;;;;;;5.64;93.48;99495.25;5051294;28;20031;-80
2024/03/24 01:07:58;;;;;;;16.63;9.05;;;;;;;5.71;93.02;99449.47;5046857;28;20045;-79
2024/03/24 01:10:23;;;;;;;15.88;10.75;;;;;;;5.93;93.04;99487.16;5045246;28;20135;-80
2024/03/24 01:12:51;;;;;;;20.33;14.07;;;;;;;5.88;94.88;99476.34;5046420;28;20417;-79
2024/03/24 01:15:17;;;;;;;18.60;11.45;;;;;;;6.06;95.04;99476.59;5046354;28;20479;-80
2024/03/24 01:17:43;;;;;;;17.63;11.20;;;;;;;5.90;93.51;99446.00;5048032;28;20025;-80
2024/03/24 01:20:12;;;;;;;17.65;10.93;;;;;;;5.97;93.72;99473.34;5064315;28;20047;-79
2024/03/24 01:22:38;;;;;;;15.15;9.88;;;;;;;5.81;94.81;99461.28;5062468;28;20025;-79
2024/03/24 01:25:05;;;;;;;14.77;9.00;;;;;;;6.02;94.99;99481.47;5046718;28;20104;-79
2024/03/24 01:27:30;;;;;;;15.98;9.93;;;;;;;6.14;94.27;99489.63;5046750;28;20039;-81
2024/03/24 01:29:56;;;;;;;18.88;11.35;;;;;;;6.07;93.25;99442.97;5045624;28;20045;-80
2024/03/24 01:32:22;;;;;;;16.00;10.13;;;;;;;5.86;93.20;99487.13;5045444;28;20048;-79
2024/03/24 01:34:47;;;;;;;17.08;11.07;;;;;;;5.77;94.84;99475.94;5047287;28;20029;-79
2024/03/24 01:37:13;;;;;;;14.57;9.52;;;;;;;5.86;94.56;99481.03;5049949;28;20127;-79
2024/03/24 01:39:42;;;;;;;17.02;9.50;;;;;;;6.13;91.23;99476.56;5046196;28;20029;-80
2024/03/24 01:42:07;;;;;;;15.85;8.85;;;;;;;5.87;92.58;99472.09;5046772;28;20033;-80
2024/03/24 01:44:32;;;;;;;14.05;8.40;;;;;;;5.30;94.61;99429.28;5046737;28;20087;-80
2024/03/24 01:46:58;;;;;;;17.05;9.30;;;;;;;4.73;98.05;99437.41;5046429;28;20456;-79
2024/03/24 01:49:23;;;;;;;16.88;9.68;;;;;;;4.43;98.95;99440.31;5052552;28;20016;-79
2024/03/24 01:51:49;;;;;;;16.45;9.32;;;;;;;5.25;94.92;99464.25;5066603;28;20089;-80
2024/03/24 01:54:16;;;;;;;16.25;8.63;;;;;;;5.37;93.15;99440.66;5052355;28;20471;-79
2024/03/24 01:56:41;;;;;;;16.33;9.10;;;;;;;5.58;92.81;99448.44;5049976;28;20032;-79
2024/03/24 01:59:06;;;;;;;17.20;8.88;;;;;;;5.05;97.30;99453.59;5055985;28;20602;-78
2024/03/24 02:01:32;;;;;;;16.52;8.68;;;;;;;5.09;96.69;99465.41;5066702;28;20036;-80
2024/03/24 02:03:58;;;;;;;14.07;8.55;;;;;;;4.91;98.88;99470.41;5055207;28;20039;-79
2024/03/24 02:06:23;;;;;;;15.60;8.52;;;;;;;4.50;96.83;99450.91;5052329;28;20103;-80
2024/03/24 02:08:49;;;;;;;14.52;8.02;;;;;;;4.65;93.73;99469.25;5059439;28;20033;-79
2024/03/24 02:11:14;;;;;;;14.40;7.75;;;;;;;3.59;98.30;99417.34;5046847;28;20068;-80
2024/03/24 02:13:40;;;;;;;13.20;8.00;;;;;;;4.02;97.45;99470.06;5039442;28;20502;-79
2024/03/24 02:16:05;;;;;;;15.50;8.32;;;;;;;4.70;93.31;99458.09;5037678;28;20132;-79
2024/03/24 02:18:31;;;;;;;14.23;8.45;;;;;;;5.12;91.90;99453.63;5072762;28;20923;-78
2024/03/24 02:20:56;;;;;;;17.77;8.75;;;;;;;4.63;96.19;99460.72;5071826;28;20025;-79
2024/03/24 02:23:22;;;;;;;13.40;7.78;;;;;;;4.52;93.69;99451.53;5068756;28;20040;-79
2024/03/24 02:25:47;;;;;;;15.90;7.50;;;;;;;4.35;94.50;99427.25;5054070;28;20541;-80
2024/03/24 02:28:13;;;;;;;16.75;8.52;;;;;;;4.11;95.95;99425.88;5069128;28;20089;-79
2024/03/24 02:30:38;;;;;;;12.02;7.55;;;;;;;4.15;97.76;99471.19;5053418;28;20051;-79
2024/03/24 02:33:04;;;;;;;20.73;9.23;;;;;;;3.46;95.81;99440.16;5053028;28;20037;-78
2024/03/24 02:35:30;;;;;;;13.70;8.00;;;;;;;3.43;97.23;99459.75;5057335;28;20029;-80
2024/03/24 02:37:55;;;;;;;14.85;7.90;;;;;;;3.82;94.30;99450.59;5057290;28;20044;-79
2024/03/24 02:40:21;;;;;;;15.52;8.00;;;;;;;4.05;93.76;99457.50;5064146;28;20024;-78
2024/03/24 02:42:46;;;;;;;12.38;8.20;;;;;;;4.26;90.12;99420.50;5074500;28;20437;-79
2024/03/24 02:45:12;;;;;;;14.27;7.97;;;;;;;4.26;89.41;99432.88;5058969;28;20093;-78
2024/03/24 02:47:38;;;;;;;16.05;8.45;;;;;;;4.19;91.38;99448.69;5056809;28;20036;-78
2024/03/24 02:50:05;;;;;;;15.13;8.02;;;;;;;3.71;93.79;99398.38;5055079;28;20112;-78
2024/03/24 02:52:31;;;;;;;13.18;7.97;;;;;;;3.88;95.31;99415.53;5055043;28;20576;-78
2024/03/24 02:54:56;;;;;;;15.48;7.53;;;;;;;3.99;93.04;99414.22;5055076;28;20063;-78
2024/03/24 02:57:22;;;;;;;14.02;7.20;;;;;;;4.08;90.25;99436.81;5052762;28;20027;-78
2024/03/24 02:59:47;;;;;;;17.27;8.30;;;;;;;4.13;90.82;99418.59;5053043;28;20025;-78
2024/03/24 03:02:13;;;;;;;18.25;8.10;;;;;;;3.95;94.90;99421.69;5052382;28;20036;-78
2024/03/24 03:04:38;;;;;;;13.15;7.68;;;;;;;3.40;100.00;99415.34;5051205;28;20108;-78
2024/03/24 03:07:04;;;;;;;14.00;7.50;;;;;;;3.80;96.20;99439.41;5053626;28;20303;-79
2024/03/24 03:09:31;;;;;;;13.60;8.00;;;;;;;3.50;97.59;99402.66;5070221;28;20108;-79
2024/03/24 03:11:57;;;;;;;17.65;8.77;;;;;;;3.93;96.34;99423.72;5051327;28;20032;-78
2024/03/24 03:14:22;;;;;;;15.07;8.90;;;;;;;4.15;97.01;99453.50;5052768;28;20017;-80
2024/03/24 03:16:47;;;;;;;16.08;8.63;;;;;;;3.69;100.00;99424.13;5049406;28;20063;-80
2024/03/24 03:19:13;;;;;;;14.52;8.30;;;;;;;3.16;100.00;99422.59;5050558;28;20103;-79
2024/03/24 03:21:38;;;;;;;12.98;8.27;;;;;;;3.10;100.00;99383.81;5050695;28;20052;-79
2024/03/24 03:24:05;;;;;;;16.85;8.88;;;;;;;3.28;100.00;99415.03;5052034;28;20112;-79
2024/03/24 03:26:30;;;;;;;14.95;8.05;;;;;;;3.92;100.00;99416.78;5069473;28;20101;-79
2024/03/24 03:28:56;;;;;;;15.10;9.23;;;;;;;4.39;100.00;99425.03;5048391;28;20453;-80
2024/03/24 03:31:22;;;;;;;13.75;7.78;;;;;;;3.94;100.00;99388.41;5049907;28;20035;-79
2024/03/24 03:33:47;;;;;;;13.68;7.93;;;;;;;4.06;100.00;99409.78;5048466;28;20064;-79
2024/03/24 03:36:12;;;;;;;15.13;9.23;;;;;;;3.90;100.00;99389.78;5049916;28;20025;-80
2024/03/24 03:38:38;;;;;;;13.57;8.25;;;;;;;4.37;100.00;99414.69;5049935;28;20032;-79
2024/03/24 03:41:05;;;;;;;13.93;8.30;;;;;;;3.76;100.00;99369.59;5049601;28;20021;-80
2024/03/24 03:43:31;;;;;;;14.27;8.40;;;;;;;3.83;100.00;99386.31;5049484;28;20040;-79
2024/03/24 03:45:57;;;;;;;16.55;9.25;;;;;;;3.99;100.00;99391.28;5049497;28;20108;-79
2024/03/24 03:48:22;;;;;;;16.42;9.18;;;;;;;4.61;100.00;99420.47;5049205;28;20064;-79
2024/03/24 03:50:48;;;;;;;16.58;9.40;;;;;;;4.15;100.00;99390.19;5049140;28;20051;-80
2024/03/24 03:53:36;;;;;;;15.15;9.57;;;;;;;4.12;100.00;99379.19;5049506;28;20470;-79
2024/03/24 03:56:01;;;;;;;;;;;;;;;4.33;100.00;99410.78;5049170;28;20037;-80
2024/03/24 03:58:26;;;;;;;15.90;8.95;;;;;;;4.51;100.00;99393.63;5048636;28;19917;-79
2024/03/24 04:00:52;;;;;;;15.95;8.80;;;;;;;4.77;100.00;99416.69;5052207;28;20039;-79
2024/03/24 04:03:17;;;;;;;16.98;9.43;;;;;;;4.79;100.00;99412.84;5069284;28;20134;-80
2024/03/24 04:05:43;;;;;;;14.75;8.82;;;;;;;4.73;100.00;99426.84;5056414;28;20194;-80
2024/03/24 04:08:09;;;;;;;16.88;9.15;;;;;;;4.61;98.95;99397.50;5048769;28;20017;-79
2024/03/24 04:10:35;;;;;;;15.45;9.40;;;;;;;3.74;100.00;99387.44;5047652;28;20029;-80
2024/03/24 04:13:02;;;;;;;26.77;13.48;;;;;;;3.63;100.00;99392.22;5068118;28;20044;-80
2024/03/24 04:15:27;;;;;;;32.47;18.55;;;;;;;4.14;100.00;99406.19;5061780;28;20468;-78
2024/03/24 04:17:52;;;;;;;29.75;15.63;;;;;;;4.10;100.00;99376.72;5048566;28;20029;-80
2024/03/24 04:20:18;;;;;;;24.08;14.25;;;;;;;3.57;100.00;99398.25;5049151;28;20037;-79
2024/03/24 04:22:45;;;;;;;14.68;9.13;;;;;;;3.28;100.00;99382.59;5048894;28;20025;-79
2024/03/24 04:25:11;;;;;;;13.82;8.00;;;;;;;3.53;100.00;99385.66;5048605;28;20553;-79
2024/03/24 04:27:36;;;;;;;17.45;10.02;;;;;;;3.40;100.00;99397.69;5047418;28;20035;-79
2024/03/24 04:30:03;;;;;;;15.60;9.52;;;;;;;3.76;100.00;99382.78;5047926;28;20051;-79
2024/03/24 04:32:28;;;;;;;14.73;8.70;;;;;;;3.42;100.00;99385.16;5046939;28;20067;-79
2024/03/24 04:34:54;;;;;;;19.23;11.40;;;;;;;3.44;100.00;99416.59;5048140;28;20061;-79
2024/03/24 04:37:19;;;;;;;20.13;9.85;;;;;;;3.69;100.00;99401.19;5048636;28;20110;-79
2024/03/24 04:39:44;;;;;;;17.70;8.88;;;;;;;3.95;100.00;99399.78;5046414;28;20033;-79
2024/03/24 04:42:10;;;;;;;16.85;9.07;;;;;;;3.86;100.00;99390.38;5058938;28;20021;-79
2024/03/24 04:44:35;;;;;;;18.17;9.93;;;;;;;3.50;100.00;99373.66;5068280;28;20055;-80
2024/03/24 04:47:01;;;;;;;19.02;12.00;;;;;;;3.65;100.00;99392.03;5052497;28;20505;-80
2024/03/24 04:49:26;;;;;;;19.65;10.35;;;;;;;3.61;100.00;99399.50;5046792;28;20417;-79
2024/03/24 04:51:52;;;;;;;18.42;10.32;;;;;;;4.20;100.00;99397.50;5048344;28;20025;-80
2024/03/24 04:54:17;;;;;;;18.13;12.00;;;;;;;4.09;100.00;99377.75;5046896;28;20183;-79
2024/03/24 04:56:42;;;;;;;20.90;12.13;;;;;;;4.07;100.00;99381.59;5047507;28;20078;-79
2024/03/24 04:59:08;;;;;;;23.80;14.65;;;;;;;4.21;100.00;99404.44;5048172;28;20426;-79
2024/03/24 05:01:33;;;;;;;29.45;15.45;;;;;;;4.43;100.00;99411.25;5047737;28;20111;-78
2024/03/24 05:03:59;;;;;;;28.55;15.75;;;;;;;4.41;100.00;99400.09;5047871;28;20062;-79
2024/03/24 05:06:24;;;;;;;32.65;15.68;;;;;;;4.86;100.00;99414.69;5047698;28;20486;-79
2024/03/24 05:08:53;;;;;;;25.35;14.90;;;;;;;4.80;100.00;99372.22;5047937;28;20154;-80
2024/03/24 05:11:18;;;;;;;26.73;14.07;;;;;;;5.27;99.28;99414.63;5046438;28;20543;-80
2024/03/24 05:13:47;;;;;;;27.40;15.57;;;;;;;5.41;97.81;99411.00;5047457;28;20169;-79
2024/03/24 05:16:13;;;;;;;76.03;43.15;;;;;;;5.47;98.12;99417.28;5046429;28;20464;-79
2024/03/24 05:18:38;;;;;;;32.90;19.75;;;;;;;5.49;94.77;99391.44;5049085;28;20525;-80
2024/03/24 05:21:04;;;;;;;34.08;21.80;;;;;;;5.41;97.83;99415.44;5028069;28;20029;-80
2024/03/24 05:23:30;;;;;;;61.15;36.63;;;;;;;5.62;94.46;99391.47;5044036;28;20037;-79
2024/03/24 05:25:56;;;;;;;49.25;28.95;;;;;;;5.66;93.10;99385.75;5047577;28;20146;-80
2024/03/24 05:28:22;;;;;;;53.38;32.50;;;;;;;5.69;95.79;99427.69;5047227;28;20112;-79
2024/03/24 05:30:49;;;;;;;46.70;24.05;;;;;;;5.45;98.84;99437.81;5047303;28;20036;-80
2024/03/24 05:33:15;;;;;;;34.80;21.23;;;;;;;5.80;94.07;99392.69;5047306;28;20040;-80
2024/03/24 05:35:41;;;;;;;32.17;21.13;;;;;;;6.00;93.90;99395.34;5046324;28;20506;-79
2024/03/24 05:38:06;;;;;;;32.38;18.73;;;;;;;6.39;93.68;99407.69;5048867;28;20028;-79
2024/03/24 05:40:31;;;;;;;24.65;15.57;;;;;;;6.34;94.44;99394.28;5047157;28;20028;-79
2024/03/24 05:42:57;;;;;;;22.08;14.13;;;;;;;6.41;95.45;99413.59;5047752;28;20029;-79
2024/03/24 05:45:22;;;;;;;22.02;14.05;;;;;;;6.44;96.76;99421.16;5046214;28;20028;-81
2024/03/24 05:47:48;;;;;;;20.55;14.02;;;;;;;6.42;98.04;99417.09;5047550;28;20150;-79
2024/03/24 05:50:13;;;;;;;23.50;13.45;;;;;;;6.81;94.46;99405.53;5047073;28;20032;-80
2024/03/24 05:52:41;;;;;;;22.58;14.25;;;;;;;6.97;92.37;99416.69;5047596;28;20502;-80
2024/03/24 05:55:07;;;;;;;20.58;12.52;;;;;;;7.09;91.34;99419.47;5047710;28;20021;-80
2024/03/24 05:57:33;;;;;;;20.60;13.57;;;;;;;7.40;91.40;99421.34;5047758;28;20529;-79
2024/03/24 05:59:59;;;;;;;21.92;13.45;;;;;;;7.16;92.20;99413.13;5049538;28;20032;-80
2024/03/24 06:02:25;;;;;;;20.45;13.10;;;;;;;7.23;92.18;99392.69;5046114;28;20098;-81
2024/03/24 06:04:51;;;;;;;19.63;13.48;;;;;;;7.65;93.32;99395.66;5066062;28;20028;-81
2024/03/24 06:07:16;;;;;;;27.73;14.15;;;;;;;7.48;96.69;99428.22;5059007;28;20035;-81
2024/03/24 06:09:42;;;;;;;20.50;13.80;;;;;;;7.52;93.64;99417.00;5049874;28;20033;-81
2024/03/24 06:12:07;;;;;;;22.75;15.52;;;;;;;7.53;94.26;99437.16;5050815;28;20548;-80
2024/03/24 06:14:33;;;;;;;21.77;14.05;;;;;;;7.85;94.23;99427.34;5069975;28;20512;-80
2024/03/24 06:16:58;;;;;;;23.27;14.80;;;;;;;7.79;92.91;99441.50;5067258;28;20025;-80
2024/03/24 06:19:24;;;;;;;22.23;12.13;;;;;;;7.65;98.90;99414.22;5050504;28;20063;-80
2024/03/24 06:21:49;;;;;;;21.27;12.27;;;;;;;7.46;100.00;99417.84;5049630;28;20037;-79
2024/03/24 06:24:16;;;;;;;18.73;12.10;;;;;;;7.32;100.00;99389.78;5063056;28;20115;-79
2024/03/24 06:26:42;;;;;;;18.52;12.43;;;;;;;7.52;99.74;99405.53;5069935;28;20017;-79
2024/03/24 06:29:07;;;;;;;21.10;13.05;;;;;;;7.94;97.30;99413.81;5031621;28;20068;-79
2024/03/24 06:31:33;;;;;;;67.20;52.60;;;;;;;8.31;94.28;99409.34;5050738;28;20029;-79
2024/03/24 06:34:00;;;;;;;75.68;60.00;;;;;;;8.30;93.49;99414.91;5047998;28;20098;-79
2024/03/24 06:36:25;;;;;;;44.67;33.35;;;;;;;8.49;93.16;99418.41;5050538;28;20062;-79
2024/03/24 06:38:50;;;;;;;19.02;12.57;;;;;;;8.95;89.69;99425.03;5049137;28;20029;-79
2024/03/24 06:41:16;;;;;;;17.90;11.55;;;;;;;8.92;89.42;99414.84;5050166;28;20420;-79
2024/03/24 06:43:42;;;;;;;22.73;15.05;;;;;;;9.03;87.19;99438.00;5050116;28;20465;-79
2024/03/24 06:46:09;;;;;;;19.17;12.10;;;;;;;9.16;88.69;99426.41;5047470;28;20107;-79
2024/03/24 06:48:34;;;;;;;16.30;10.77;;;;;;;9.35;86.94;99392.56;5050369;28;20040;-79
2024/03/24 06:51:00;;;;;;;18.08;12.02;;;;;;;9.39;86.40;99418.50;5050033;28;20023;-79
2024/03/24 06:53:26;;;;;;;17.02;11.68;;;;;;;9.82;86.77;99436.06;5050046;28;20024;-80
2024/03/24 06:55:51;;;;;;;14.70;10.13;;;;;;;9.80;84.89;99389.41;5050633;28;20033;-79
2024/03/24 06:58:17;;;;;;;15.23;10.85;;;;;;;10.42;85.25;99429.78;5050231;28;20025;-80
2024/03/24 07:00:44;;;;;;;16.35;11.18;;;;;;;10.22;84.21;99392.00;5049989;28;20025;-80
2024/03/24 07:03:10;;;;;;;16.65;10.77;;;;;;;10.41;84.50;99420.16;5050019;28;20036;-81
2024/03/24 07:05:35;;;;;;;16.30;10.80;;;;;;;9.96;87.05;99403.91;5049857;28;20025;-81
2024/03/24 07:08:01;;;;;;;15.07;10.45;;;;;;;9.59;88.60;99382.81;5050204;28;20678;-80
2024/03/24 07:10:26;;;;;;;18.40;11.55;;;;;;;9.90;92.13;99416.28;5050785;28;20032;-80
2024/03/24 07:12:51;;;;;;;16.90;10.98;;;;;;;9.74;90.29;99395.66;5068544;28;20398;-80
2024/03/24 07:15:17;;;;;;;17.45;10.07;;;;;;;9.75;88.20;99394.66;5049779;28;20052;-79
2024/03/24 07:17:42;;;;;;;16.05;10.23;;;;;;;10.19;88.74;99392.44;5047519;28;20025;-80
2024/03/24 07:20:08;;;;;;;157.75;145.27;;;;;;;10.11;87.02;99361.63;5031896;28;20128;-80
2024/03/24 07:22:33;;;;;;;15.75;12.48;;;;;;;10.69;82.20;99402.59;5049365;28;20501;-81
2024/03/24 07:24:59;;;;;;;15.13;10.32;;;;;;;11.10;80.06;99398.06;5049662;28;20024;-80
2024/03/24 07:27:24;;;;;;;15.90;10.50;;;;;;;11.13;80.85;99408.25;5049489;28;20379;-79
2024/03/24 07:29:50;;;;;;;14.23;10.18;;;;;;;11.38;76.99;99412.44;5067347;28;20509;-81
2024/03/24 07:32:16;;;;;;;15.15;10.73;;;;;;;11.23;76.96;99387.09;5054113;28;20549;-80
2024/03/24 07:34:42;;;;;;;16.13;9.75;;;;;;;11.21;76.31;99378.50;5049412;28;20029;-80
2024/03/24 07:37:08;;;;;;;13.70;9.23;;;;;;;11.21;71.94;99391.03;5049530;28;20402;-80
2024/03/24 07:39:33;;;;;;;12.73;8.65;;;;;;;11.18;73.36;99352.31;5035740;28;20037;-80
2024/03/24 07:41:59;;;;;;;14.50;8.80;;;;;;;11.59;71.18;99395.72;5045221;28;20040;-80
2024/03/24 07:44:24;;;;;;;15.15;8.85;;;;;;;11.95;66.62;99391.00;5040468;28;20029;-79
2024/03/24 07:46:50;;;;;;;21.00;10.73;;;;;;;12.27;64.30;99407.19;5048937;28;20061;-80
2024/03/24 07:49:15;;;;;;;13.68;8.75;;;;;;;12.38;61.50;99407.34;5049773;28;20522;-80
2024/03/24 07:51:41;;;;;;;12.88;9.30;;;;;;;12.62;61.74;99394.56;5049051;28;20031;-80
2024/03/24 07:54:07;;;;;;;12.93;9.38;;;;;;;12.61;66.71;99407.13;5041305;28;20037;-80
2024/03/24 07:56:33;;;;;;;16.23;9.68;;;;;;;12.72;63.57;99402.69;5049373;28;20097;-79
2024/03/24 07:58:59;;;;;;;12.75;8.65;;;;;;;12.73;62.50;99385.59;5047821;28;20037;-81
2024/03/24 08:01:24;;;;;;;12.95;8.80;;;;;;;12.61;63.60;99363.53;5048985;28;20028;-80
2024/03/24 08:03:49;;;;;;;12.25;9.13;;;;;;;12.74;63.82;99381.84;5048665;28;20146;-80
2024/03/24 08:06:15;;;;;;;13.38;8.70;;;;;;;12.65;62.14;99396.75;5049080;28;20445;-79
2024/03/24 08:08:41;;;;;;;13.02;8.73;;;;;;;12.91;61.59;99384.44;5047726;28;20505;-80
2024/03/24 08:11:06;;;;;;;14.45;8.82;;;;;;;12.83;61.52;99396.44;5048643;28;20025;-81
2024/03/24 08:13:32;;;;;;;14.30;8.07;;;;;;;12.81;60.51;99400.41;5044193;28;20541;-80
2024/03/24 08:15:57;;;;;;;12.60;8.88;;;;;;;13.24;60.92;99391.50;5043995;28;20033;-81
2024/03/24 08:18:22;;;;;;;12.43;7.80;;;;;;;13.90;55.64;99406.56;5048904;28;20648;-79
2024/03/24 08:20:48;;;;;;;13.40;7.82;;;;;;;14.00;53.66;99395.91;5049156;28;20401;-80
2024/03/24 08:23:15;;;;;;;12.27;8.05;;;;;;;14.10;54.05;99389.00;5048388;28;20039;-79
2024/03/24 08:25:40;;;;;;;12.60;7.82;;;;;;;14.27;52.06;99378.94;5056116;28;20513;-80
2024/03/24 08:28:06;;;;;;;11.25;8.20;;;;;;;14.32;51.08;99354.00;5047488;28;20112;-80
2024/03/24 08:30:31;;;;;;;12.15;8.05;;;;;;;14.62;51.53;99385.56;5046842;28;20043;-80
2024/03/24 08:32:57;;;;;;;14.43;8.70;;;;;;;14.92;51.31;99384.06;5044120;28;20044;-80
2024/03/24 08:35:26;;;;;;;11.85;8.23;;;;;;;14.32;51.96;99365.53;5037266;28;20031;-80
2024/03/24 08:37:52;;;;;;;12.77;8.70;;;;;;;14.85;52.79;99358.28;5046997;28;20615;-80
2024/03/24 08:40:17;;;;;;;15.32;9.05;;;;;;;15.55;52.09;99363.22;5048447;28;20041;-80
2024/03/24 08:42:44;;;;;;;14.07;8.55;;;;;;;15.83;48.93;99361.06;5046848;28;20021;-79
2024/03/24 08:45:10;;;;;;;14.60;9.95;;;;;;;15.37;48.81;99353.00;5043239;28;20040;-80
2024/03/24 08:47:35;;;;;;;14.98;9.60;;;;;;;16.02;47.52;99356.75;5048220;28;20398;-80
2024/03/24 08:50:02;;;;;;;16.38;9.88;;;;;;;15.65;47.05;99355.16;5050253;28;20425;-80
2024/03/24 08:52:28;;;;;;;13.45;9.02;;;;;;;15.37;50.24;99326.94;5048166;28;20029;-80
2024/03/24 08:54:53;;;;;;;17.50;8.88;;;;;;;14.86;51.92;99308.88;5033069;28;20461;-79
2024/03/24 08:57:19;;;;;;;12.02;8.10;;;;;;;15.33;51.20;99335.81;5063174;28;20079;-79
2024/03/24 08:59:44;;;;;;;13.23;8.90;;;;;;;15.72;50.03;99344.16;5047809;28;20083;-80
2024/03/24 09:02:09;;;;;;;12.80;8.23;;;;;;;15.84;49.37;99349.25;5048202;28;20036;-80
2024/03/24 09:04:35;;;;;;;17.00;8.70;;;;;;;15.95;48.74;99315.88;5046846;28;20472;-80
2024/03/24 09:07:00;;;;;;;13.60;9.02;;;;;;;15.90;48.12;99334.72;5047531;28;20479;-80
2024/03/24 09:09:25;;;;;;;12.63;8.40;;;;;;;16.21;47.36;99323.88;5048181;28;20029;-80
2024/03/24 09:11:51;;;;;;;13.73;8.05;;;;;;;16.14;46.65;99293.75;5047871;28;20128;-80
2024/03/24 09:14:16;;;;;;;13.90;8.95;;;;;;;16.62;46.74;99326.41;5046888;28;20029;-80
2024/03/24 09:16:42;;;;;;;13.82;8.00;;;;;;;17.23;43.71;99317.97;5046306;28;20060;-80
2024/03/24 09:19:07;;;;;;;11.88;8.00;;;;;;;17.20;46.14;99312.34;5042974;28;20107;-80
2024/03/24 09:21:32;;;;;;;10.95;7.30;;;;;;;17.27;46.09;99319.00;5046268;28;20483;-80
2024/03/24 09:23:58;;;;;;;13.38;8.20;;;;;;;17.11;46.97;99293.28;5043727;28;20086;-80
2024/03/24 09:26:24;;;;;;;15.45;7.93;;;;;;;16.82;45.59;99279.75;5047446;28;20055;-81
2024/03/24 09:28:50;;;;;;;12.35;8.50;;;;;;;16.89;49.51;99303.66;5047680;28;20045;-80
2024/03/24 09:31:15;;;;;;;14.27;8.73;;;;;;;17.12;48.45;99294.06;5049224;28;20029;-81
2024/03/24 09:33:41;;;;;;;13.05;7.65;;;;;;;17.19;46.34;99300.75;5046590;28;20411;-80
2024/03/24 09:36:06;;;;;;;10.20;6.85;;;;;;;16.82;49.18;99255.50;5047307;28;20023;-80
2024/03/24 09:38:32;;;;;;;11.88;7.78;;;;;;;17.31;45.63;99286.13;5047504;28;20025;-80
2024/03/24 09:40:57;;;;;;;11.02;7.03;;;;;;;17.34;47.04;99269.38;5047332;28;20032;-81
2024/03/24 09:43:23;;;;;;;11.75;7.60;;;;;;;18.06;43.79;99254.13;5049208;28;20860;-80
2024/03/24 09:45:49;;;;;;;9.93;7.10;;;;;;;18.25;45.49;99253.34;5046696;28;20021;-81
2024/03/24 09:48:16;;;;;;;10.80;7.72;;;;;;;18.24;46.81;99255.22;5047263;28;20548;-80
2024/03/24 09:50:42;;;;;;;11.20;6.95;;;;;;;18.07;46.39;99233.31;5048201;28;20021;-80
2024/03/24 09:53:08;;;;;;;12.02;8.52;;;;;;;18.42;45.88;99261.75;5047105;28;20410;-79
2024/03/24 09:55:35;;;;;;;10.88;7.40;;;;;;;18.20;47.76;99259.59;5032491;28;20032;-81
2024/03/24 09:58:00;;;;;;;11.70;7.95;;;;;;;18.59;45.06;99250.47;5045686;28;20039;-82
2024/03/24 10:00:26;;;;;;;10.32;7.22;;;;;;;18.74;43.04;99244.03;5047404;28;20017;-78
2024/03/24 10:02:52;;;;;;;10.85;6.72;;;;;;;18.76;42.39;99233.72;5046046;28;20033;-81
2024/03/24 10:05:20;;;;;;;11.95;7.10;;;;;;;18.89;45.08;99224.09;5049406;28;20609;-79
2024/03/24 10:07:46;;;;;;;11.52;7.20;;;;;;;18.18;46.37;99186.22;5047258;28;20048;-80
2024/03/24 10:10:12;;;;;;;10.40;6.40;;;;;;;18.92;42.64;99203.78;5046734;28;20029;-80
2024/03/24 10:12:38;;;;;;;13.75;7.20;;;;;;;19.21;44.52;99212.50;5047179;28;20033;-81
2024/03/24 10:15:19;;;;;;;12.18;6.78;;;;;;;18.67;42.75;99203.91;5045964;28;20414;-80
2024/03/24 10:17:45;;;;;;;10.93;6.25;;;;;;;19.34;42.86;99183.09;5059269;28;20029;-81
2024/03/24 10:20:12;;;;;;;9.15;6.38;;;;;;;19.54;40.94;99152.16;5044763;28;20047;-81
2024/03/24 10:22:38;;;;;;;10.32;6.45;;;;;;;19.11;39.78;99155.13;5047474;28;20025;-81
2024/03/24 10:25:09;;;;;;;10.75;6.60;;;;;;;19.38;39.29;99173.28;5045892;28;20082;-81
2024/03/24 10:27:34;;;;;;;10.63;6.50;;;;;;;19.60;42.37;99165.28;5047646;28;20063;-80
2024/03/24 10:29:59;;;;;;;9.32;6.20;;;;;;;19.53;41.05;99097.25;5046780;28;20499;-80
2024/03/24 10:32:25;;;;;;;12.18;7.28;;;;;;;20.15;39.93;99133.88;5047074;28;20025;-80
2024/03/24 10:34:50;;;;;;;8.75;6.35;;;;;;;19.92;39.91;99128.41;5043022;28;20033;-80
2024/03/24 10:37:16;;;;;;;13.52;6.82;;;;;;;20.41;38.56;99155.75;5036421;28;20017;-80
2024/03/24 10:39:42;;;;;;;9.52;5.55;;;;;;;20.67;35.42;99158.69;5046597;28;20060;-81
2024/03/24 10:42:11;;;;;;;7.75;5.25;;;;;;;20.45;36.02;99121.53;5041656;28;20062;-80
2024/03/24 10:44:37;;;;;;;8.93;6.25;;;;;;;20.62;39.96;99102.72;5046654;28;20036;-81
2024/03/24 10:47:03;;;;;;;7.32;5.28;;;;;;;20.86;33.43;99117.84;5046267;28;20025;-80
2024/03/24 10:49:29;;;;;;;7.00;3.95;;;;;;;21.13;31.88;99132.34;5045851;28;20029;-79
2024/03/24 10:51:56;;;;;;;6.95;4.15;;;;;;;21.14;35.69;99090.56;5047033;28;20112;-80
2024/03/24 10:54:21;;;;;;;7.57;4.35;;;;;;;21.75;33.56;99088.06;5047535;28;20025;-80
2024/03/24 10:56:47;;;;;;;7.93;4.53;;;;;;;21.77;33.25;99102.88;5049951;28;20029;-80
2024/03/24 10:59:13;;;;;;;8.63;4.57;;;;;;;21.79;32.16;99075.44;5039987;28;20029;-80
2024/03/24 11:01:39;;;;;;;7.47;4.53;;;;;;;21.83;31.32;99084.53;5046626;28;20044;-79
2024/03/24 11:04:05;;;;;;;7.80;4.38;;;;;;;22.17;32.38;99099.25;5049559;28;20465;-80
2024/03/24 11:06:33;;;;;;;7.45;4.38;;;;;;;22.00;31.71;99084.53;5047169;28;20032;-80
2024/03/24 11:08:59;;;;;;;;;;;;;;;23.06;31.60;99083.31;5048866;28;20628;-79
2024/03/24 11:11:25;;;;;;;8.02;4.45;;;;;;;22.43;32.68;99051.19;5050132;28;19917;-81
2024/03/24 11:13:51;;;;;;;9.43;3.92;;;;;;;21.86;32.90;99045.91;5049574;28;20048;-80
2024/03/24 11:16:20;;;;;;;7.15;4.65;;;;;;;22.57;31.69;99069.19;5049444;28;20029;-81
2024/03/24 11:18:46;;;;;;;8.75;4.40;;;;;;;22.82;30.80;99032.19;5042050;28;20075;-80